createdAt,value
2018-06-21T00:48:52.227Z,76.15
2018-06-21T00:51:24.033Z,76.33
2018-06-21T00:53:56.181Z,76.59
2018-06-21T00:56:30.919Z,76.59
2018-06-21T00:59:04.020Z,77.11
2018-06-21T01:01:36.585Z,77.11
2018-06-21T01:04:08.345Z,77.23
2018-06-21T01:06:43.131Z,77.66
2018-06-21T01:09:16.321Z,77.76
2018-06-21T01:11:49.300Z,78.03
2018-06-21T01:14:24.023Z,77.48
2018-06-21T01:16:58.983Z,77.46
2018-06-21T01:19:33.569Z,77.49
2018-06-21T01:22:05.437Z,77.49
2018-06-21T01:24:39.058Z,77.19
2018-06-21T01:27:09.147Z,77.57
2018-06-21T01:29:44.361Z,77.42
2018-06-21T01:32:17.659Z,77.94
2018-06-21T01:34:50.745Z,77.90
2018-06-21T01:37:22.438Z,77.81
2018-06-21T01:39:57.321Z,77.74
2018-06-21T01:42:30.872Z,78.05
2018-06-21T01:45:04.278Z,78.29
2018-06-21T01:47:36.432Z,78.18
2018-06-21T01:50:08.927Z,77.99
2018-06-21T01:52:40.780Z,77.88
2018-06-21T01:55:10.475Z,78.27
2018-06-21T01:57:43.684Z,78.33
2018-06-21T02:00:13.884Z,78.57
2018-06-21T02:02:48.331Z,78.42
2018-06-21T02:05:20.093Z,78.94
2018-06-21T02:07:50.237Z,79.28
2018-06-21T02:10:22.439Z,79.22
2018-06-21T02:12:54.202Z,79.57
2018-06-21T02:15:26.003Z,79.92
2018-06-21T02:17:56.192Z,79.44
2018-06-21T02:20:30.906Z,78.87
2018-06-21T02:23:02.708Z,79.31
2018-06-21T02:25:34.421Z,79.34
2018-06-21T02:28:06.282Z,80.12
2018-06-21T02:30:41.389Z,81.21
2018-06-21T02:33:14.523Z,82.93
2018-06-21T02:35:49.282Z,83.29
2018-06-21T02:38:22.556Z,83.53
2018-06-21T02:40:55.853Z,83.26
2018-06-21T02:43:27.561Z,83.71
2018-06-21T02:46:00.914Z,83.99
2018-06-21T02:48:32.949Z,84.90
2018-06-21T02:51:04.580Z,85.63
2018-06-21T02:53:37.099Z,85.17
2018-06-21T02:56:09.062Z,85.46
2018-06-21T02:58:40.884Z,85.50
2018-06-21T03:01:14.806Z,84.92
2018-06-21T03:03:47.660Z,84.94
2018-06-21T03:06:19.423Z,85.44
2018-06-21T03:08:50.386Z,84.99
2018-06-21T03:11:20.411Z,85.69
2018-06-21T03:13:53.366Z,85.60
2018-06-21T03:16:26.738Z,85.77
2018-06-21T03:19:00.291Z,86.24
2018-06-21T03:21:31.910Z,86.07
2018-06-21T03:24:03.918Z,86.50
2018-06-21T03:26:35.512Z,86.73
2018-06-21T03:29:09.109Z,86.85
2018-06-21T03:31:42.353Z,86.78
2018-06-21T03:34:15.692Z,86.75
2018-06-21T03:36:47.325Z,86.72
2018-06-21T03:39:22.073Z,86.60
2018-06-21T03:41:53.781Z,86.39
2018-06-21T03:44:25.465Z,86.56
2018-06-21T03:46:57.064Z,86.33
2018-06-21T03:49:26.835Z,86.27
2018-06-21T03:52:00.302Z,86.59
2018-06-21T03:54:32.273Z,86.67
2018-06-21T03:57:04.452Z,86.67
2018-06-21T03:59:39.318Z,86.50
2018-06-21T04:02:14.006Z,86.71
2018-06-21T04:04:47.605Z,86.51
2018-06-21T04:07:22.314Z,86.02
2018-06-21T04:09:57.172Z,85.07
2018-06-21T04:12:29.918Z,85.20
2018-06-21T04:15:04.549Z,86.08
2018-06-21T04:17:39.682Z,85.45
2018-06-21T04:20:12.964Z,85.29
2018-06-21T04:22:48.557Z,85.35
2018-06-21T04:25:21.833Z,85.34
2018-06-21T04:27:56.686Z,85.15
2018-06-21T04:30:31.450Z,84.68
2018-06-21T04:33:03.304Z,84.60
2018-06-21T04:35:36.487Z,83.98
2018-06-21T04:38:08.642Z,84.34
2018-06-21T04:40:42.063Z,84.17
2018-06-21T04:43:16.797Z,84.16
2018-06-21T04:45:52.043Z,84.14
2018-06-21T04:48:23.924Z,83.79
2018-06-21T04:50:56.194Z,83.47
2018-06-21T04:53:28.199Z,82.97
2018-06-21T04:56:02.962Z,83.03
2018-06-21T04:58:37.534Z,82.21
2018-06-21T05:01:09.078Z,81.81
2018-06-21T05:03:40.934Z,80.58
2018-06-21T05:06:15.471Z,78.81
2018-06-21T05:08:50.355Z,78.45
2018-06-21T05:11:22.163Z,79.05
2018-06-21T05:13:52.367Z,78.39
2018-06-21T05:16:27.159Z,77.80
2018-06-21T05:19:01.892Z,77.52
2018-06-21T05:21:36.780Z,77.49
2018-06-21T05:24:11.779Z,77.34
2018-06-21T05:26:42.447Z,77.14
2018-06-21T05:29:16.471Z,76.79
2018-06-21T05:31:49.632Z,77.17
2018-06-21T05:34:23.571Z,75.89
2018-06-21T05:36:56.612Z,76.26
2018-06-21T05:39:28.360Z,75.74
2018-06-21T05:42:03.172Z,75.97
2018-06-21T05:44:34.832Z,74.37
2018-06-21T05:47:07.790Z,75.25
2018-06-21T05:49:40.887Z,74.85
2018-06-21T05:52:11.036Z,73.67
2018-06-21T05:54:42.907Z,73.13
2018-06-21T05:57:16.213Z,72.85
2018-06-21T05:59:48.719Z,72.28
2018-06-21T06:02:20.803Z,71.97
2018-06-21T06:04:52.315Z,70.72
2018-06-21T06:07:23.865Z,70.72
2018-06-21T06:09:56.123Z,70.50
2018-06-21T06:12:30.600Z,71.37
2018-06-21T06:15:05.125Z,72.41
2018-06-21T06:17:38.186Z,71.48
2018-06-21T06:20:12.909Z,71.43
2018-06-21T06:22:44.643Z,71.60
2018-06-21T06:25:19.523Z,71.54
2018-06-21T06:27:50.081Z,70.91
2018-06-21T06:30:21.832Z,70.74
2018-06-21T06:32:56.392Z,67.81
2018-06-21T06:35:32.675Z,66.08
2018-06-21T06:38:04.210Z,64.34
2018-06-21T06:40:38.647Z,64.22
2018-06-21T06:43:10.572Z,64.04
2018-06-21T06:45:45.095Z,61.89
2018-06-21T06:48:17.449Z,63.22
2018-06-21T06:50:50.443Z,61.88
2018-06-21T06:53:23.634Z,64.09
2018-06-21T06:55:56.975Z,64.79
2018-06-21T06:58:28.692Z,65.94
2018-06-21T07:01:01.857Z,63.92
2018-06-21T07:03:33.439Z,63.40
2018-06-21T07:06:06.814Z,64.20
2018-06-21T07:08:39.957Z,66.40
2018-06-21T07:11:11.683Z,64.63
2018-06-21T07:13:46.288Z,63.14
2018-06-21T07:16:17.723Z,60.15
2018-06-21T07:18:47.689Z,56.88
2018-06-21T07:21:19.330Z,56.24
2018-06-21T07:23:52.548Z,55.70
2018-06-21T07:26:24.103Z,56.81
2018-06-21T07:28:58.592Z,59.09
2018-06-21T07:31:33.121Z,59.08
2018-06-21T07:34:05.988Z,59.81
2018-06-21T07:36:40.862Z,61.25
2018-06-21T07:39:15.194Z,59.35
2018-06-21T07:41:48.160Z,57.80
2018-06-21T07:44:22.802Z,57.33
2018-06-21T07:46:56.186Z,58.73
2018-06-21T07:49:29.112Z,60.12
2018-06-21T07:52:00.432Z,58.48
2018-06-21T07:54:33.483Z,54.30
2018-06-21T07:57:05.699Z,52.12
2018-06-21T07:59:38.444Z,52.60
2018-06-21T08:02:10.075Z,51.45
2018-06-21T08:04:44.706Z,53.13
2018-06-21T08:07:17.656Z,49.55
2018-06-21T08:09:50.981Z,48.96
2018-06-21T08:12:21.002Z,48.08
2018-06-21T08:14:55.517Z,45.36
2018-06-21T08:17:25.634Z,42.80
2018-06-21T08:19:59.084Z,41.62
2018-06-21T08:22:33.601Z,41.48
2018-06-21T08:25:07.696Z,41.50
2018-06-21T08:27:39.133Z,40.54
2018-06-21T08:30:11.096Z,41.51
2018-06-21T08:32:45.480Z,39.58
2018-06-21T08:35:18.646Z,45.23
2018-06-21T08:37:51.503Z,44.30
2018-06-21T08:40:24.559Z,44.99
2018-06-21T08:42:56.216Z,42.43
2018-06-21T08:45:27.552Z,41.89
2018-06-21T08:48:00.537Z,43.37
2018-06-21T08:50:33.892Z,43.62
2018-06-21T08:53:06.410Z,44.69
2018-06-21T08:55:39.329Z,39.32
2018-06-21T08:58:13.547Z,40.34
2018-06-21T09:00:46.669Z,40.69
2018-06-21T09:03:18.027Z,39.93
2018-06-21T09:05:50.944Z,39.96
2018-06-21T09:08:23.956Z,40.69
2018-06-21T09:10:58.382Z,38.72
2018-06-21T09:13:40.010Z,37.81
2018-06-21T09:16:12.539Z,39.81
2018-06-21T09:18:46.945Z,38.79
2018-06-21T09:21:18.141Z,39.22
2018-06-21T09:23:50.390Z,37.52
2018-06-21T09:26:22.632Z,36.54
2018-06-21T09:28:51.943Z,41.67
2018-06-21T09:31:24.870Z,37.69
2018-06-21T09:33:56.889Z,36.17
2018-06-21T09:36:28.028Z,35.35
2018-06-21T09:39:17.095Z,36.16
2018-06-21T09:42:06.338Z,36.02
2018-06-21T09:44:56.735Z,35.36
2018-06-21T09:47:45.594Z,35.51
2018-06-21T09:50:20.302Z,36.54
2018-06-21T09:52:53.243Z,36.79
2018-06-21T09:55:24.717Z,35.60
2018-06-21T09:57:57.523Z,36.14
2018-06-21T10:00:45.606Z,36.96
2018-06-21T10:03:17.607Z,36.65
2018-06-21T10:05:49.937Z,36.34
2018-06-21T10:08:24.395Z,37.89
2018-06-21T10:10:56.284Z,36.57
2018-06-21T10:13:27.845Z,35.15
2018-06-21T10:16:00.732Z,34.47
2018-06-21T10:18:33.628Z,35.45
2018-06-21T10:21:05.636Z,33.42
2018-06-21T10:23:38.062Z,34.34
2018-06-21T10:26:07.970Z,36.84
2018-06-21T10:28:39.416Z,36.10
2018-06-21T10:31:12.399Z,38.65
2018-06-21T10:33:43.819Z,40.42
2018-06-21T10:36:17.757Z,37.85
2018-06-21T10:38:52.210Z,35.89
2018-06-21T10:41:25.204Z,35.99
2018-06-21T10:43:59.019Z,35.12
2018-06-21T10:46:35.457Z,34.21
2018-06-21T10:49:06.938Z,33.94
2018-06-21T10:51:40.308Z,33.56
2018-06-21T10:54:11.853Z,33.52
2018-06-21T10:56:46.446Z,32.27
2018-06-21T10:59:19.428Z,34.11
2018-06-21T11:01:52.620Z,33.88
2018-06-21T11:04:25.544Z,34.07
2018-06-21T11:06:58.522Z,32.54
2018-06-21T11:09:29.864Z,33.75
2018-06-21T11:12:01.319Z,35.64
2018-06-21T11:14:35.633Z,37.56
2018-06-21T11:17:07.189Z,37.24
2018-06-21T11:19:36.355Z,33.52
2018-06-21T11:22:10.768Z,33.78
2018-06-21T11:24:43.753Z,33.92
2018-06-21T11:27:18.246Z,32.74
2018-06-21T11:29:49.796Z,31.03
2018-06-21T11:32:20.708Z,33.39
2018-06-21T11:34:53.600Z,34.58
2018-06-21T11:37:24.513Z,32.84
2018-06-21T11:39:58.895Z,33.97
2018-06-21T11:42:31.844Z,36.49
2018-06-21T11:45:03.591Z,33.83
2018-06-21T11:47:36.688Z,34.58
2018-06-21T11:50:08.254Z,34.16
2018-06-21T11:52:41.260Z,34.66
2018-06-21T11:55:15.781Z,35.76
2018-06-21T11:57:48.693Z,36.43
2018-06-21T12:00:20.101Z,36.41
2018-06-21T12:02:54.597Z,36.21
2018-06-21T12:05:25.995Z,37.85
2018-06-21T12:07:59.055Z,37.69
2018-06-21T12:10:29.810Z,37.50
2018-06-21T12:13:04.074Z,37.25
2018-06-21T12:15:39.398Z,36.58
2018-06-21T12:18:10.972Z,37.78
2018-06-21T12:20:40.085Z,37.64
2018-06-21T12:23:12.277Z,39.93
2018-06-21T12:25:45.384Z,40.58
2018-06-21T12:28:18.942Z,39.40
2018-06-21T12:30:51.941Z,38.45
2018-06-21T12:33:21.883Z,38.22
2018-06-21T12:35:54.858Z,40.00
2018-06-21T12:38:26.412Z,42.21
2018-06-21T12:41:00.963Z,40.70
2018-06-21T12:43:33.812Z,40.79
2018-06-21T12:46:09.766Z,40.72
2018-06-21T12:48:42.741Z,39.63
2018-06-21T12:51:14.986Z,39.55
2018-06-21T12:53:45.449Z,38.56
2018-06-21T12:56:18.672Z,38.07
2018-06-21T12:58:50.797Z,37.86
2018-06-21T13:01:23.629Z,37.72
2018-06-21T13:03:55.039Z,37.72
2018-06-21T13:06:26.950Z,38.14
2018-06-21T13:09:32.861Z,41.13
2018-06-21T13:12:44.284Z,42.80
2018-06-21T13:15:17.299Z,42.02
2018-06-21T13:17:47.238Z,41.59
2018-06-21T13:20:17.261Z,41.34
2018-06-21T13:22:49.251Z,43.04
2018-06-21T13:25:23.465Z,44.43
2018-06-21T13:27:52.654Z,45.35
2018-06-21T13:30:28.090Z,44.00
2018-06-21T13:33:01.108Z,42.61
2018-06-21T13:35:32.598Z,42.99
2018-06-21T13:38:02.621Z,43.36
2018-06-21T13:40:33.971Z,44.24
2018-06-21T13:43:08.409Z,43.75
2018-06-21T13:45:39.789Z,44.86
2018-06-21T13:48:14.304Z,45.62
2018-06-21T13:50:45.779Z,44.65
2018-06-21T13:53:18.685Z,46.08
2018-06-21T13:55:49.027Z,44.33
2018-06-21T13:58:23.654Z,45.96
2018-06-21T14:00:58.400Z,45.27
2018-06-21T14:03:29.325Z,44.09
2018-06-21T14:06:01.475Z,44.47
2018-06-21T14:08:36.216Z,45.63
2018-06-21T14:11:09.516Z,44.44
2018-06-21T14:13:42.835Z,44.91
2018-06-21T14:16:14.891Z,42.05
2018-06-21T14:18:47.836Z,41.79
2018-06-21T14:21:19.246Z,42.91
2018-06-21T14:23:54.012Z,43.93
2018-06-21T14:26:25.931Z,44.79
2018-06-21T14:28:57.765Z,45.18
2018-06-21T14:31:31.059Z,45.18
2018-06-21T14:34:02.602Z,44.90
2018-06-21T14:36:37.535Z,45.46
2018-06-21T14:39:11.210Z,46.02
2018-06-21T14:41:46.075Z,45.70
2018-06-21T14:44:17.518Z,46.51
2018-06-21T14:46:50.535Z,45.29
2018-06-21T14:49:23.750Z,46.81
2018-06-21T14:51:56.669Z,46.64
2018-06-21T14:54:28.165Z,45.25
2018-06-21T14:57:00.935Z,43.97
2018-06-21T14:59:34.650Z,44.24
2018-06-21T15:02:06.252Z,43.67
2018-06-21T15:04:39.689Z,45.66
2018-06-21T15:07:11.407Z,45.61
2018-06-21T15:09:45.855Z,46.77
2018-06-21T15:12:18.788Z,46.35
2018-06-21T15:14:52.056Z,45.87
2018-06-21T15:17:24.959Z,45.45
2018-06-21T15:19:57.327Z,45.64
2018-06-21T15:22:27.556Z,44.57
2018-06-21T15:25:03.300Z,44.43
2018-06-21T15:27:35.069Z,45.33
2018-06-21T15:30:08.048Z,45.12
2018-06-21T15:32:39.539Z,43.24
2018-06-21T15:35:12.446Z,44.59
2018-06-21T15:37:45.477Z,46.57
2018-06-21T15:40:18.615Z,48.89
2018-06-21T15:42:49.975Z,49.33
2018-06-21T15:45:20.064Z,48.98
2018-06-21T15:47:50.827Z,49.01
2018-06-21T15:50:23.864Z,48.91
2018-06-21T15:52:55.381Z,50.13
2018-06-21T15:55:30.534Z,50.02
2018-06-21T15:58:02.597Z,50.87
2018-06-21T16:00:32.540Z,48.22
2018-06-21T16:03:06.950Z,48.27
2018-06-21T16:05:39.386Z,48.35
2018-06-21T16:08:09.236Z,50.09
2018-06-21T16:10:43.613Z,49.87
2018-06-21T16:13:17.536Z,50.46
2018-06-21T16:15:52.090Z,50.28
2018-06-21T16:18:24.935Z,48.25
2018-06-21T16:20:55.538Z,49.75
2018-06-21T16:23:27.022Z,48.68
2018-06-21T16:26:00.120Z,48.72
2018-06-21T16:28:31.616Z,50.11
2018-06-21T16:31:02.483Z,51.24
2018-06-21T16:33:32.493Z,52.09
2018-06-21T16:36:05.427Z,54.12
2018-06-21T16:38:39.896Z,55.98
2018-06-21T16:41:12.224Z,55.83
2018-06-21T16:43:45.419Z,55.51
2018-06-21T16:46:18.276Z,56.60
2018-06-21T16:48:51.313Z,54.25
2018-06-21T16:51:22.840Z,55.32
2018-06-21T16:53:54.284Z,55.15
2018-06-21T16:56:28.978Z,55.02
2018-06-21T16:59:00.365Z,55.61
2018-06-21T17:01:32.478Z,56.37
2018-06-21T17:04:06.775Z,55.64
2018-06-21T17:06:38.396Z,53.43
2018-06-21T17:09:14.288Z,53.82
2018-06-21T17:11:47.209Z,53.50
2018-06-21T17:14:21.884Z,53.05
2018-06-21T17:16:55.105Z,51.45
2018-06-21T17:19:26.521Z,52.13
2018-06-21T17:21:56.856Z,52.01
2018-06-21T17:24:31.713Z,52.04
2018-06-21T17:27:04.284Z,52.77
2018-06-21T17:29:37.545Z,54.20
2018-06-21T17:32:11.984Z,53.48
2018-06-21T17:34:43.531Z,53.45
2018-06-21T17:37:16.476Z,54.12
2018-06-21T17:39:49.607Z,54.62
2018-06-21T17:42:19.528Z,55.44
2018-06-21T17:44:53.970Z,56.11
2018-06-21T17:47:25.422Z,55.94
2018-06-21T17:49:56.207Z,56.36
2018-06-21T17:52:27.704Z,54.03
2018-06-21T17:55:00.053Z,52.95
2018-06-21T17:57:33.573Z,52.59
2018-06-21T18:00:06.079Z,51.76
2018-06-21T18:02:37.619Z,51.52
2018-06-21T18:05:12.116Z,52.87
2018-06-21T18:07:45.143Z,52.72
2018-06-21T18:10:16.716Z,53.62
2018-06-21T18:12:49.602Z,55.21
2018-06-21T18:15:24.151Z,55.37
2018-06-21T18:17:57.117Z,54.71
2018-06-21T18:20:30.213Z,54.76
2018-06-21T18:23:03.184Z,52.31
2018-06-21T18:25:37.776Z,53.83
2018-06-21T18:28:12.632Z,54.34
2018-06-21T18:30:47.187Z,55.21
2018-06-21T18:33:20.074Z,55.71
2018-06-21T18:35:54.626Z,54.81
2018-06-21T18:38:27.524Z,55.08
2018-06-21T18:41:00.616Z,54.27
2018-06-21T18:43:33.723Z,54.58
2018-06-21T18:46:08.116Z,54.58
2018-06-21T18:48:39.687Z,54.67
2018-06-21T18:51:11.285Z,54.42
2018-06-21T18:53:45.211Z,54.62
2018-06-21T18:56:19.734Z,55.12
2018-06-21T18:58:51.452Z,56.32
2018-06-21T19:01:23.490Z,56.48
2018-06-21T19:03:58.132Z,57.10
2018-06-21T19:06:49.004Z,57.76
2018-06-21T19:09:39.804Z,56.11
2018-06-21T19:12:12.972Z,54.32
2018-06-21T19:14:48.367Z,54.22
2018-06-21T19:17:22.871Z,54.54
2018-06-21T19:19:57.208Z,54.11
2018-06-21T19:22:28.826Z,54.33
2018-06-21T19:25:01.672Z,54.84
2018-06-21T19:27:33.276Z,54.87
2018-06-21T19:30:06.206Z,54.69
2018-06-21T19:32:40.879Z,55.66
2018-06-21T19:35:13.777Z,56.44
2018-06-21T19:37:48.489Z,56.16
2018-06-21T19:40:18.466Z,56.11
2018-06-21T19:42:52.923Z,57.07
2018-06-21T19:45:25.958Z,57.76
2018-06-21T19:48:00.838Z,58.85
2018-06-21T19:50:35.513Z,59.09
2018-06-21T19:53:09.902Z,58.59
2018-06-21T19:55:43.037Z,59.93
2018-06-21T19:58:17.434Z,59.76
2018-06-21T20:00:50.360Z,59.39
2018-06-21T20:03:24.858Z,60.03
2018-06-21T20:05:55.027Z,60.15
2018-06-21T20:08:28.169Z,59.90
2018-06-21T20:11:17.087Z,60.53
2018-06-21T20:13:50.055Z,60.23
2018-06-21T20:16:24.197Z,60.34
2018-06-21T20:18:55.901Z,58.90
2018-06-21T20:21:27.669Z,59.75
2018-06-21T20:23:59.251Z,58.41
2018-06-21T20:26:30.213Z,58.11
2018-06-21T20:29:01.384Z,59.14
2018-06-21T20:31:34.380Z,59.60
2018-06-21T20:34:08.043Z,60.17
2018-06-21T20:36:39.670Z,58.84
2018-06-21T20:39:12.725Z,58.58
2018-06-21T20:41:47.196Z,58.45
2018-06-21T20:44:21.719Z,58.73
2018-06-21T20:46:53.640Z,58.92
2018-06-21T20:49:26.700Z,58.64
2018-06-21T20:52:01.260Z,59.33
2018-06-21T20:54:35.943Z,60.40
2018-06-21T20:57:09.221Z,59.35
2018-06-21T20:59:44.328Z,60.05
2018-06-21T21:02:16.679Z,60.98
2018-06-21T21:05:15.417Z,60.83
2018-06-21T21:07:52.884Z,61.37
2018-06-21T21:10:25.932Z,61.11
2018-06-21T21:13:00.288Z,60.97
2018-06-21T21:15:32.082Z,61.62
2018-06-21T21:18:06.069Z,62.07
2018-06-21T21:20:37.674Z,62.09
2018-06-21T21:23:09.314Z,63.28
2018-06-21T21:25:42.242Z,63.23
2018-06-21T21:28:17.614Z,63.19
2018-06-21T21:30:49.663Z,63.45
2018-06-21T21:33:22.522Z,63.91
2018-06-21T21:35:53.947Z,63.69
2018-06-21T21:38:26.940Z,64.20
2018-06-21T21:40:59.854Z,64.64
2018-06-21T21:43:34.353Z,64.59
2018-06-21T21:46:08.704Z,64.50
2018-06-21T21:48:41.860Z,64.75
2018-06-21T21:51:15.902Z,64.89
2018-06-21T21:53:49.123Z,64.83
2018-06-21T21:56:22.389Z,64.08
2018-06-21T21:58:55.589Z,64.78
2018-06-21T22:01:27.025Z,63.83
2018-06-21T22:04:00.848Z,63.84
2018-06-21T22:06:32.393Z,64.23
2018-06-21T22:09:03.943Z,64.31
2018-06-21T22:11:36.097Z,64.63
2018-06-21T22:14:09.133Z,64.54
2018-06-21T22:16:43.230Z,64.87
2018-06-21T22:19:15.465Z,65.93
2018-06-21T22:21:48.951Z,65.39
2018-06-21T22:24:23.357Z,65.56
2018-06-21T22:26:56.397Z,65.77
2018-06-21T22:29:29.463Z,65.43
2018-06-21T22:31:59.620Z,65.78
2018-06-21T22:34:34.060Z,64.75
2018-06-21T22:37:06.860Z,65.81
2018-06-21T22:39:39.750Z,64.18
2018-06-21T22:42:13.034Z,64.65
2018-06-21T22:44:47.576Z,64.37
2018-06-21T22:47:16.714Z,63.48
2018-06-21T22:49:49.787Z,63.58
2018-06-21T22:52:24.236Z,63.99
2018-06-21T22:54:57.152Z,63.01
2018-06-21T22:57:31.728Z,63.01
2018-06-21T23:00:04.755Z,62.47
2018-06-21T23:02:39.554Z,62.15
2018-06-21T23:05:13.948Z,61.10
2018-06-21T23:07:45.805Z,61.30
2018-06-21T23:10:18.805Z,60.37
2018-06-21T23:12:53.251Z,58.86
2018-06-21T23:15:24.292Z,57.52
2018-06-21T23:17:57.491Z,56.97
2018-06-21T23:20:27.517Z,57.04
2018-06-21T23:23:00.538Z,56.49
2018-06-21T23:25:32.067Z,56.50
2018-06-21T23:28:03.676Z,55.54
2018-06-21T23:30:37.642Z,55.70
2018-06-21T23:33:12.072Z,55.92
2018-06-21T23:35:43.672Z,55.54
2018-06-21T23:38:18.212Z,56.14
2018-06-21T23:40:49.969Z,56.14
2018-06-21T23:43:20.644Z,54.99
2018-06-21T23:45:52.761Z,55.57
2018-06-21T23:48:25.823Z,55.27
2018-06-21T23:50:55.697Z,55.36
2018-06-21T23:53:28.599Z,54.70
2018-06-21T23:56:01.054Z,54.89
2018-06-21T23:58:34.258Z,55.14
